sensor_id;sensor_type;location;lat;lon;timestamp;pressure;altitude;pressure_sealevel;temperature;humidity
27685;BME280;46113;50.130;8.526;2023-06-04T07:00:29;99422.22;;;23.65;23.66
27685;BME280;46113;50.130;8.526;2023-06-04T07:02:59;99426.50;;;24.16;23.09
27685;BME280;46113;50.130;8.526;2023-06-04T07:05:26;99419.38;;;24.24;22.25
27685;BME280;46113;50.130;8.526;2023-06-04T07:07:53;99420.16;;;24.81;22.34
27685;BME280;46113;50.130;8.526;2023-06-04T07:10:20;99419.22;;;25.59;21.08
27685;BME280;46113;50.130;8.526;2023-06-04T07:12:47;99423.75;;;26.42;20.58
27685;BME280;46113;50.130;8.526;2023-06-04T07:15:13;99418.44;;;26.34;20.63
27685;BME280;46113;50.130;8.526;2023-06-04T07:17:40;99419.75;;;26.08;19.93
27685;BME280;46113;50.130;8.526;2023-06-04T07:20:08;99420.19;;;26.93;20.79
27685;BME280;46113;50.130;8.526;2023-06-04T07:22:35;99413.00;;;25.88;20.25
27685;BME280;46113;50.130;8.526;2023-06-04T07:25:02;99420.31;;;26.70;20.09
27685;BME280;46113;50.130;8.526;2023-06-04T07:27:29;99420.97;;;28.23;18.52
27685;BME280;46113;50.130;8.526;2023-06-04T07:29:56;99424.44;;;27.03;19.91
27685;BME280;46113;50.130;8.526;2023-06-04T07:32:22;99414.84;;;26.85;19.61
27685;BME280;46113;50.130;8.526;2023-06-04T07:34:49;99411.69;;;28.53;18.04
27685;BME280;46113;50.130;8.526;2023-06-04T07:37:16;99421.81;;;28.24;17.33
27685;BME280;46113;50.130;8.526;2023-06-04T07:39:43;99412.06;;;28.50;19.27
27685;BME280;46113;50.130;8.526;2023-06-04T07:42:09;99411.00;;;29.33;17.94
27685;BME280;46113;50.130;8.526;2023-06-04T07:44:36;99409.56;;;28.41;17.31
27685;BME280;46113;50.130;8.526;2023-06-04T07:47:04;99416.28;;;26.44;19.31
27685;BME280;46113;50.130;8.526;2023-06-04T07:49:30;99420.75;;;26.37;19.53
27685;BME280;46113;50.130;8.526;2023-06-04T07:51:57;99420.94;;;27.53;18.54
27685;BME280;46113;50.130;8.526;2023-06-04T07:54:24;99414.41;;;27.47;16.61
27685;BME280;46113;50.130;8.526;2023-06-04T07:56:51;99415.44;;;27.74;16.67
27685;BME280;46113;50.130;8.526;2023-06-04T07:59:23;99408.59;;;28.56;17.26
27685;BME280;46113;50.130;8.526;2023-06-04T08:01:50;99416.44;;;29.40;15.40
27685;BME280;46113;50.130;8.526;2023-06-04T08:04:21;99413.31;;;29.64;15.95
27685;BME280;46113;50.130;8.526;2023-06-04T08:06:48;99401.78;;;29.68;15.00
27685;BME280;46113;50.130;8.526;2023-06-04T08:09:18;99415.06;;;30.24;15.32
27685;BME280;46113;50.130;8.526;2023-06-04T08:11:57;99409.72;;;29.77;15.67
27685;BME280;46113;50.130;8.526;2023-06-04T08:14:24;99413.16;;;31.60;14.69
27685;BME280;46113;50.130;8.526;2023-06-04T08:16:54;99409.69;;;29.02;15.35
27685;BME280;46113;50.130;8.526;2023-06-04T08:19:21;99410.69;;;30.09;15.67
27685;BME280;46113;50.130;8.526;2023-06-04T08:21:48;99409.59;;;30.31;14.99
27685;BME280;46113;50.130;8.526;2023-06-04T08:24:15;99416.69;;;32.12;14.56
27685;BME280;46113;50.130;8.526;2023-06-04T08:26:42;99413.41;;;31.33;14.64
27685;BME280;46113;50.130;8.526;2023-06-04T08:29:09;99413.06;;;32.79;13.46
27685;BME280;46113;50.130;8.526;2023-06-04T08:31:36;99415.09;;;32.72;13.67
27685;BME280;46113;50.130;8.526;2023-06-04T08:34:05;99414.09;;;32.66;13.32
27685;BME280;46113;50.130;8.526;2023-06-04T08:36:35;99422.13;;;32.30;13.50
27685;BME280;46113;50.130;8.526;2023-06-04T08:39:02;99417.34;;;30.80;14.07
27685;BME280;46113;50.130;8.526;2023-06-04T08:41:59;99416.53;;;30.72;14.16
27685;BME280;46113;50.130;8.526;2023-06-04T08:44:28;99422.13;;;30.84;13.49
27685;BME280;46113;50.130;8.526;2023-06-04T08:47:02;99418.34;;;32.13;14.30
27685;BME280;46113;50.130;8.526;2023-06-04T08:49:34;99422.00;;;31.62;14.27
27685;BME280;46113;50.130;8.526;2023-06-04T08:52:04;99417.69;;;29.31;14.68
27685;BME280;46113;50.130;8.526;2023-06-04T08:54:33;99408.00;;;31.26;14.20
27685;BME280;46113;50.130;8.526;2023-06-04T08:57:05;99407.47;;;29.40;15.50
27685;BME280;46113;50.130;8.526;2023-06-04T08:59:49;99409.69;;;29.90;13.64
27685;BME280;46113;50.130;8.526;2023-06-04T09:02:50;99408.41;;;30.13;14.56
27685;BME280;46113;50.130;8.526;2023-06-04T09:05:31;99406.16;;;31.71;14.16
27685;BME280;46113;50.130;8.526;2023-06-04T09:08:38;99405.53;;;32.63;11.88
27685;BME280;46113;50.130;8.526;2023-06-04T09:15:37;99411.69;;;33.67;13.10
27685;BME280;46113;50.130;8.526;2023-06-04T09:18:53;99415.69;;;34.00;12.99
27685;BME280;46113;50.130;8.526;2023-06-04T09:21:28;99422.72;;;32.82;12.97
27685;BME280;46113;50.130;8.526;2023-06-04T09:24:49;99421.41;;;31.79;12.83
27685;BME280;46113;50.130;8.526;2023-06-04T09:30:50;99423.22;;;28.62;15.66
27685;BME280;46113;50.130;8.526;2023-06-04T09:34:08;99413.94;;;30.45;13.38
27685;BME280;46113;50.130;8.526;2023-06-04T09:37:14;99425.47;;;29.61;13.80
27685;BME280;46113;50.130;8.526;2023-06-04T09:40:03;99419.53;;;30.11;14.47
27685;BME280;46113;50.130;8.526;2023-06-04T09:43:26;99413.75;;;29.20;16.07
27685;BME280;46113;50.130;8.526;2023-06-04T09:46:23;99421.31;;;27.49;16.86
27685;BME280;46113;50.130;8.526;2023-06-04T09:50:33;99414.91;;;27.57;16.64
27685;BME280;46113;50.130;8.526;2023-06-04T09:56:48;99407.91;;;25.55;17.80
27685;BME280;46113;50.130;8.526;2023-06-04T10:00:04;99408.53;;;24.40;18.65
27685;BME280;46113;50.130;8.526;2023-06-04T10:03:01;99408.91;;;24.92;19.36
27685;BME280;46113;50.130;8.526;2023-06-04T10:05:33;99411.47;;;23.40;20.23
27685;BME280;46113;50.130;8.526;2023-06-04T10:08:04;99395.38;;;22.89;20.53
27685;BME280;46113;50.130;8.526;2023-06-04T10:10:39;99411.03;;;22.77;21.72
27685;BME280;46113;50.130;8.526;2023-06-04T10:13:14;99403.00;;;23.52;21.10
27685;BME280;46113;50.130;8.526;2023-06-04T10:15:46;99400.63;;;22.39;20.63
27685;BME280;46113;50.130;8.526;2023-06-04T10:18:14;99392.72;;;22.46;20.33
27685;BME280;46113;50.130;8.526;2023-06-04T10:20:44;99398.44;;;21.73;19.23
27685;BME280;46113;50.130;8.526;2023-06-04T10:23:12;99401.72;;;20.40;21.25
27685;BME280;46113;50.130;8.526;2023-06-04T10:25:39;99401.41;;;19.87;21.31
27685;BME280;46113;50.130;8.526;2023-06-04T10:28:23;99407.50;;;19.69;21.80
27685;BME280;46113;50.130;8.526;2023-06-04T10:30:50;99393.13;;;20.36;21.75
27685;BME280;46113;50.130;8.526;2023-06-04T10:33:18;99389.47;;;20.83;21.83
27685;BME280;46113;50.130;8.526;2023-06-04T10:35:46;99386.94;;;20.82;21.51
27685;BME280;46113;50.130;8.526;2023-06-04T10:38:29;99381.31;;;21.11;21.76
27685;BME280;46113;50.130;8.526;2023-06-04T10:41:16;99391.47;;;21.36;21.42
27685;BME280;46113;50.130;8.526;2023-06-04T10:43:51;99391.63;;;20.80;21.22
27685;BME280;46113;50.130;8.526;2023-06-04T10:46:40;99404.97;;;20.71;20.63
27685;BME280;46113;50.130;8.526;2023-06-04T10:49:36;99396.72;;;20.27;22.30
27685;BME280;46113;50.130;8.526;2023-06-04T10:52:18;99389.00;;;20.70;21.97
27685;BME280;46113;50.130;8.526;2023-06-04T10:55:06;99398.22;;;20.67;23.13
27685;BME280;46113;50.130;8.526;2023-06-04T10:57:35;99402.84;;;20.47;22.20
27685;BME280;46113;50.130;8.526;2023-06-04T11:00:37;99398.53;;;20.54;22.42
27685;BME280;46113;50.130;8.526;2023-06-04T11:03:12;99396.38;;;20.68;22.41
27685;BME280;46113;50.130;8.526;2023-06-04T11:05:45;99398.59;;;21.09;21.71
27685;BME280;46113;50.130;8.526;2023-06-04T11:08:13;99384.31;;;20.16;19.89
27685;BME280;46113;50.130;8.526;2023-06-04T11:10:55;99395.22;;;20.42;23.62
27685;BME280;46113;50.130;8.526;2023-06-04T11:13:29;99386.66;;;20.29;23.02
27685;BME280;46113;50.130;8.526;2023-06-04T11:15:56;99380.31;;;20.58;23.36
27685;BME280;46113;50.130;8.526;2023-06-04T11:18:26;99383.78;;;20.86;22.25
27685;BME280;46113;50.130;8.526;2023-06-04T11:24:36;99382.38;;;20.08;22.53
27685;BME280;46113;50.130;8.526;2023-06-04T11:27:14;99376.19;;;20.63;24.15
27685;BME280;46113;50.130;8.526;2023-06-04T11:30:07;99372.25;;;20.76;20.92
27685;BME280;46113;50.130;8.526;2023-06-04T11:33:05;99371.56;;;20.74;22.85
27685;BME280;46113;50.130;8.526;2023-06-04T11:35:41;99382.78;;;20.41;21.59
27685;BME280;46113;50.130;8.526;2023-06-04T11:38:12;99385.91;;;20.36;23.04
27685;BME280;46113;50.130;8.526;2023-06-04T11:40:59;99378.81;;;20.45;23.24
27685;BME280;46113;50.130;8.526;2023-06-04T11:43:29;99378.06;;;20.25;23.33
27685;BME280;46113;50.130;8.526;2023-06-04T11:46:07;99369.41;;;20.59;23.11
27685;BME280;46113;50.130;8.526;2023-06-04T11:48:37;99368.88;;;20.56;22.84
27685;BME280;46113;50.130;8.526;2023-06-04T11:51:07;99385.84;;;20.28;22.67
27685;BME280;46113;50.130;8.526;2023-06-04T11:53:36;99371.03;;;20.42;22.05
27685;BME280;46113;50.130;8.526;2023-06-04T11:56:04;99380.69;;;20.07;22.38
27685;BME280;46113;50.130;8.526;2023-06-04T11:58:32;99372.75;;;20.15;21.54
27685;BME280;46113;50.130;8.526;2023-06-04T12:01:00;99364.50;;;20.27;22.45
27685;BME280;46113;50.130;8.526;2023-06-04T12:03:37;99369.34;;;20.41;23.10
27685;BME280;46113;50.130;8.526;2023-06-04T12:06:15;99363.63;;;20.54;22.52
27685;BME280;46113;50.130;8.526;2023-06-04T12:08:55;99354.28;;;20.58;23.45
27685;BME280;46113;50.130;8.526;2023-06-04T12:11:33;99350.19;;;20.54;22.30
27685;BME280;46113;50.130;8.526;2023-06-04T12:14:07;99351.97;;;20.17;21.83
27685;BME280;46113;50.130;8.526;2023-06-04T12:16:34;99338.72;;;20.34;23.28
27685;BME280;46113;50.130;8.526;2023-06-04T12:19:09;99343.25;;;20.33;23.70
27685;BME280;46113;50.130;8.526;2023-06-04T12:21:37;99348.69;;;19.95;22.55
27685;BME280;46113;50.130;8.526;2023-06-04T12:24:08;99354.16;;;20.04;24.17
27685;BME280;46113;50.130;8.526;2023-06-04T12:26:36;99339.50;;;19.98;22.93
27685;BME280;46113;50.130;8.526;2023-06-04T12:29:15;99339.03;;;20.03;23.07
27685;BME280;46113;50.130;8.526;2023-06-04T12:31:45;99344.13;;;20.06;23.36
27685;BME280;46113;50.130;8.526;2023-06-04T12:34:14;99345.66;;;20.08;25.27
27685;BME280;46113;50.130;8.526;2023-06-04T12:36:41;99343.03;;;20.45;23.44
27685;BME280;46113;50.130;8.526;2023-06-04T12:39:09;99333.00;;;20.47;23.34
27685;BME280;46113;50.130;8.526;2023-06-04T12:41:45;99341.22;;;20.17;23.31
27685;BME280;46113;50.130;8.526;2023-06-04T12:44:12;99339.72;;;20.33;23.00
27685;BME280;46113;50.130;8.526;2023-06-04T12:46:39;99335.13;;;20.43;23.78
27685;BME280;46113;50.130;8.526;2023-06-04T12:49:06;99342.59;;;20.49;23.85
27685;BME280;46113;50.130;8.526;2023-06-04T12:51:33;99335.78;;;20.55;23.28
27685;BME280;46113;50.130;8.526;2023-06-04T12:54:00;99330.66;;;20.34;23.64
27685;BME280;46113;50.130;8.526;2023-06-04T12:56:27;99332.47;;;20.15;23.16
27685;BME280;46113;50.130;8.526;2023-06-04T12:58:54;99333.59;;;20.41;23.74
27685;BME280;46113;50.130;8.526;2023-06-04T13:01:24;99330.97;;;20.03;23.37
27685;BME280;46113;50.130;8.526;2023-06-04T13:03:54;99328.13;;;20.14;24.25
27685;BME280;46113;50.130;8.526;2023-06-04T13:06:22;99321.94;;;20.04;22.91
27685;BME280;46113;50.130;8.526;2023-06-04T13:08:49;99324.56;;;19.76;22.85
27685;BME280;46113;50.130;8.526;2023-06-04T13:11:23;99314.59;;;20.06;23.54
27685;BME280;46113;50.130;8.526;2023-06-04T13:13:51;99316.66;;;20.12;22.62
27685;BME280;46113;50.130;8.526;2023-06-04T13:16:24;99319.75;;;20.17;22.64
27685;BME280;46113;50.130;8.526;2023-06-04T13:18:51;99310.69;;;20.18;22.74
27685;BME280;46113;50.130;8.526;2023-06-04T13:21:19;99316.00;;;20.00;23.61
27685;BME280;46113;50.130;8.526;2023-06-04T13:23:46;99322.28;;;20.19;22.34
27685;BME280;46113;50.130;8.526;2023-06-04T13:26:17;99308.19;;;20.17;22.10
27685;BME280;46113;50.130;8.526;2023-06-04T13:28:44;99304.34;;;20.19;23.74
27685;BME280;46113;50.130;8.526;2023-06-04T13:31:11;99310.00;;;20.16;21.55
27685;BME280;46113;50.130;8.526;2023-06-04T13:33:38;99308.47;;;20.14;22.12
27685;BME280;46113;50.130;8.526;2023-06-04T13:36:05;99306.66;;;20.32;22.77
27685;BME280;46113;50.130;8.526;2023-06-04T13:38:37;99298.22;;;20.27;22.16
27685;BME280;46113;50.130;8.526;2023-06-04T13:41:09;99310.28;;;20.13;22.75
27685;BME280;46113;50.130;8.526;2023-06-04T13:43:36;99298.25;;;20.17;23.02
27685;BME280;46113;50.130;8.526;2023-06-04T13:46:04;99309.31;;;20.14;22.93
27685;BME280;46113;50.130;8.526;2023-06-04T13:48:31;99304.53;;;20.08;22.19
27685;BME280;46113;50.130;8.526;2023-06-04T13:50:59;99301.94;;;20.16;23.63
27685;BME280;46113;50.130;8.526;2023-06-04T13:53:27;99292.91;;;19.89;24.45
27685;BME280;46113;50.130;8.526;2023-06-04T13:56:22;99300.91;;;19.99;24.12
27685;BME280;46113;50.130;8.526;2023-06-04T13:58:49;99305.66;;;20.05;24.17
27685;BME280;46113;50.130;8.526;2023-06-04T14:01:22;99292.59;;;20.20;23.71
27685;BME280;46113;50.130;8.526;2023-06-04T14:03:53;99294.13;;;19.67;23.62
27685;BME280;46113;50.130;8.526;2023-06-04T14:06:30;99298.97;;;19.91;23.08
27685;BME280;46113;50.130;8.526;2023-06-04T14:08:57;99293.50;;;19.83;22.66
27685;BME280;46113;50.130;8.526;2023-06-04T14:11:24;99295.06;;;19.76;23.00
27685;BME280;46113;50.130;8.526;2023-06-04T14:13:54;99282.88;;;19.91;23.11
27685;BME280;46113;50.130;8.526;2023-06-04T14:16:24;99287.59;;;20.07;22.82
27685;BME280;46113;50.130;8.526;2023-06-04T14:18:57;99278.75;;;19.97;22.76
27685;BME280;46113;50.130;8.526;2023-06-04T14:21:38;99281.59;;;19.95;22.85
27685;BME280;46113;50.130;8.526;2023-06-04T14:24:18;99279.53;;;20.07;22.82
27685;BME280;46113;50.130;8.526;2023-06-04T14:27:08;99282.19;;;19.89;22.52
27685;BME280;46113;50.130;8.526;2023-06-04T14:29:50;99282.09;;;20.09;22.55
27685;BME280;46113;50.130;8.526;2023-06-04T15:08:25;99257.03;;;19.90;22.95
27685;BME280;46113;50.130;8.526;2023-06-04T15:11:11;99250.16;;;20.06;23.40
27685;BME280;46113;50.130;8.526;2023-06-04T15:14:33;99261.00;;;20.14;23.67
27685;BME280;46113;50.130;8.526;2023-06-04T15:17:02;99263.47;;;20.44;23.60
27685;BME280;46113;50.130;8.526;2023-06-04T15:19:32;99250.00;;;19.79;22.84
27685;BME280;46113;50.130;8.526;2023-06-04T15:21:59;99265.38;;;19.87;23.45
27685;BME280;46113;50.130;8.526;2023-06-04T15:24:28;99254.03;;;19.65;23.53
27685;BME280;46113;50.130;8.526;2023-06-04T15:26:56;99244.94;;;19.76;23.77
27685;BME280;46113;50.130;8.526;2023-06-04T15:29:23;99256.81;;;19.74;24.14
27685;BME280;46113;50.130;8.526;2023-06-04T15:31:52;99253.63;;;19.88;24.25
27685;BME280;46113;50.130;8.526;2023-06-04T15:34:24;99256.97;;;19.72;24.82
27685;BME280;46113;50.130;8.526;2023-06-04T15:36:51;99267.44;;;19.65;24.29
27685;BME280;46113;50.130;8.526;2023-06-04T15:39:28;99262.28;;;19.44;24.91
27685;BME280;46113;50.130;8.526;2023-06-04T15:42:00;99260.47;;;19.82;24.08
27685;BME280;46113;50.130;8.526;2023-06-04T15:44:28;99254.41;;;19.70;23.51
27685;BME280;46113;50.130;8.526;2023-06-04T15:46:54;99259.19;;;19.87;24.82
27685;BME280;46113;50.130;8.526;2023-06-04T15:49:21;99253.38;;;19.81;24.31
27685;BME280;46113;50.130;8.526;2023-06-04T15:51:56;99254.19;;;19.92;24.22
27685;BME280;46113;50.130;8.526;2023-06-04T15:54:37;99243.47;;;19.82;24.38
27685;BME280;46113;50.130;8.526;2023-06-04T15:57:13;99249.16;;;19.79;24.54
27685;BME280;46113;50.130;8.526;2023-06-04T15:59:43;99250.94;;;19.88;24.44
27685;BME280;46113;50.130;8.526;2023-06-04T16:02:10;99244.97;;;19.66;24.58
27685;BME280;46113;50.130;8.526;2023-06-04T16:10:29;99256.56;;;19.67;24.56
27685;BME280;46113;50.130;8.526;2023-06-04T16:12:58;99251.06;;;19.58;24.15
27685;BME280;46113;50.130;8.526;2023-06-04T16:15:24;99241.59;;;19.64;24.13
27685;BME280;46113;50.130;8.526;2023-06-04T16:17:54;99250.25;;;19.58;25.12
27685;BME280;46113;50.130;8.526;2023-06-04T16:20:21;99246.66;;;19.67;25.03
27685;BME280;46113;50.130;8.526;2023-06-04T16:22:48;99247.81;;;19.27;24.16
27685;BME280;46113;50.130;8.526;2023-06-04T16:25:16;99243.59;;;19.24;24.52
27685;BME280;46113;50.130;8.526;2023-06-04T16:27:45;99246.16;;;19.16;24.49
27685;BME280;46113;50.130;8.526;2023-06-04T16:30:13;99239.25;;;19.51;24.69
27685;BME280;46113;50.130;8.526;2023-06-04T16:32:41;99256.75;;;18.98;24.35
27685;BME280;46113;50.130;8.526;2023-06-04T16:35:08;99249.34;;;19.29;25.34
27685;BME280;46113;50.130;8.526;2023-06-04T16:37:37;99242.34;;;19.09;24.61
27685;BME280;46113;50.130;8.526;2023-06-04T16:40:12;99241.38;;;19.00;24.80
27685;BME280;46113;50.130;8.526;2023-06-04T16:42:39;99245.44;;;19.24;24.39
27685;BME280;46113;50.130;8.526;2023-06-04T16:45:19;99239.25;;;19.13;24.32
27685;BME280;46113;50.130;8.526;2023-06-04T16:47:47;99244.88;;;19.20;25.35
27685;BME280;46113;50.130;8.526;2023-06-04T16:50:15;99245.31;;;19.05;24.19
27685;BME280;46113;50.130;8.526;2023-06-04T16:52:42;99240.78;;;19.06;24.43
27685;BME280;46113;50.130;8.526;2023-06-04T16:55:10;99247.84;;;18.97;24.36
27685;BME280;46113;50.130;8.526;2023-06-04T16:57:37;99245.19;;;18.97;24.43
27685;BME280;46113;50.130;8.526;2023-06-04T17:00:05;99242.06;;;19.02;24.17
27685;BME280;46113;50.130;8.526;2023-06-04T17:02:54;99248.44;;;19.11;24.92
27685;BME280;46113;50.130;8.526;2023-06-04T17:05:21;99244.66;;;18.74;24.49
27685;BME280;46113;50.130;8.526;2023-06-04T17:07:51;99255.03;;;18.97;24.35
27685;BME280;46113;50.130;8.526;2023-06-04T17:10:19;99258.06;;;18.74;24.82
27685;BME280;46113;50.130;8.526;2023-06-04T17:12:49;99247.75;;;18.69;24.67
27685;BME280;46113;50.130;8.526;2023-06-04T17:15:16;99245.03;;;18.99;26.09
27685;BME280;46113;50.130;8.526;2023-06-04T17:17:43;99267.34;;;18.70;24.64
27685;BME280;46113;50.130;8.526;2023-06-04T17:20:10;99255.81;;;18.49;24.91
27685;BME280;46113;50.130;8.526;2023-06-04T17:22:41;99257.91;;;18.46;24.50
27685;BME280;46113;50.130;8.526;2023-06-04T17:25:11;99273.91;;;18.26;24.58
27685;BME280;46113;50.130;8.526;2023-06-04T17:27:38;99271.59;;;18.62;24.88
27685;BME280;46113;50.130;8.526;2023-06-04T17:30:06;99272.00;;;18.48;24.89
27685;BME280;46113;50.130;8.526;2023-06-04T17:32:40;99270.88;;;18.40;24.88
27685;BME280;46113;50.130;8.526;2023-06-04T17:35:10;99264.75;;;18.28;24.84
27685;BME280;46113;50.130;8.526;2023-06-04T17:37:39;99269.81;;;18.12;25.70
27685;BME280;46113;50.130;8.526;2023-06-04T17:40:06;99283.66;;;18.27;24.73
27685;BME280;46113;50.130;8.526;2023-06-04T17:42:33;99274.09;;;18.34;25.06
27685;BME280;46113;50.130;8.526;2023-06-04T17:45:03;99281.63;;;17.99;24.19
27685;BME280;46113;50.130;8.526;2023-06-04T17:47:31;99286.94;;;17.90;25.31
27685;BME280;46113;50.130;8.526;2023-06-04T17:49:57;99271.47;;;17.93;24.73
27685;BME280;46113;50.130;8.526;2023-06-04T17:52:27;99276.72;;;18.14;24.77
27685;BME280;46113;50.130;8.526;2023-06-04T17:54:56;99272.53;;;18.32;24.78
27685;BME280;46113;50.130;8.526;2023-06-04T17:57:23;99273.13;;;18.35;26.33
27685;BME280;46113;50.130;8.526;2023-06-04T17:59:50;99270.78;;;18.01;25.13
27685;BME280;46113;50.130;8.526;2023-06-04T18:02:16;99283.44;;;17.89;25.37
27685;BME280;46113;50.130;8.526;2023-06-04T18:04:43;99292.13;;;17.81;25.47
27685;BME280;46113;50.130;8.526;2023-06-04T18:07:10;99274.13;;;17.83;25.27
27685;BME280;46113;50.130;8.526;2023-06-04T18:09:37;99286.69;;;17.93;25.31
27685;BME280;46113;50.130;8.526;2023-06-04T18:12:04;99275.06;;;17.72;25.43
27685;BME280;46113;50.130;8.526;2023-06-04T18:14:34;99281.06;;;17.65;25.29
27685;BME280;46113;50.130;8.526;2023-06-04T18:17:01;99279.91;;;17.88;25.88
27685;BME280;46113;50.130;8.526;2023-06-04T18:19:28;99281.81;;;17.67;25.29
27685;BME280;46113;50.130;8.526;2023-06-04T18:21:55;99277.91;;;17.50;25.67
27685;BME280;46113;50.130;8.526;2023-06-04T18:24:21;99274.84;;;17.54;25.96
27685;BME280;46113;50.130;8.526;2023-06-04T18:26:48;99286.69;;;17.30;25.90
27685;BME280;46113;50.130;8.526;2023-06-04T18:29:15;99281.78;;;17.35;26.89
27685;BME280;46113;50.130;8.526;2023-06-04T18:31:44;99293.50;;;17.23;26.32
27685;BME280;46113;50.130;8.526;2023-06-04T18:34:17;99290.06;;;17.32;25.85
27685;BME280;46113;50.130;8.526;2023-06-04T18:36:49;99294.81;;;17.29;26.14
27685;BME280;46113;50.130;8.526;2023-06-04T18:39:23;99296.25;;;17.33;27.99
27685;BME280;46113;50.130;8.526;2023-06-04T18:41:51;99291.91;;;17.11;26.72
27685;BME280;46113;50.130;8.526;2023-06-04T18:44:21;99295.28;;;17.13;26.73
27685;BME280;46113;50.130;8.526;2023-06-04T18:46:54;99302.72;;;17.09;28.24
27685;BME280;46113;50.130;8.526;2023-06-04T18:49:28;99299.63;;;16.71;27.18
27685;BME280;46113;50.130;8.526;2023-06-04T18:51:58;99293.84;;;16.54;27.38
27685;BME280;46113;50.130;8.526;2023-06-04T18:54:26;99298.09;;;16.90;27.34
27685;BME280;46113;50.130;8.526;2023-06-04T18:56:54;99301.66;;;16.79;28.54
27685;BME280;46113;50.130;8.526;2023-06-04T18:59:21;99301.22;;;16.62;26.85
27685;BME280;46113;50.130;8.526;2023-06-04T19:01:50;99308.34;;;16.62;27.13
27685;BME280;46113;50.130;8.526;2023-06-04T19:04:21;99313.44;;;16.76;26.97
27685;BME280;46113;50.130;8.526;2023-06-04T19:06:48;99314.88;;;16.69;26.97
27685;BME280;46113;50.130;8.526;2023-06-04T19:09:15;99310.75;;;16.76;27.68
27685;BME280;46113;50.130;8.526;2023-06-04T19:11:42;99309.94;;;16.64;27.76
27685;BME280;46113;50.130;8.526;2023-06-04T19:14:09;99312.53;;;16.54;27.79
27685;BME280;46113;50.130;8.526;2023-06-04T19:16:40;99313.78;;;16.39;29.01
27685;BME280;46113;50.130;8.526;2023-06-04T19:25:09;99316.53;;;15.93;28.16
27685;BME280;46113;50.130;8.526;2023-06-04T19:27:55;99319.91;;;15.95;30.30
27685;BME280;46113;50.130;8.526;2023-06-04T19:30:48;99327.16;;;15.70;31.43
27685;BME280;46113;50.130;8.526;2023-06-04T19:36:28;99336.47;;;15.64;33.03
27685;BME280;46113;50.130;8.526;2023-06-04T19:38:58;99336.09;;;15.46;32.62
27685;BME280;46113;50.130;8.526;2023-06-04T19:41:26;99344.69;;;15.39;33.95
27685;BME280;46113;50.130;8.526;2023-06-04T19:43:53;99346.94;;;15.20;34.67
27685;BME280;46113;50.130;8.526;2023-06-04T19:46:21;99353.56;;;15.03;34.19
27685;BME280;46113;50.130;8.526;2023-06-04T19:48:47;99352.25;;;14.84;34.49
27685;BME280;46113;50.130;8.526;2023-06-04T19:51:14;99359.66;;;14.68;35.62
27685;BME280;46113;50.130;8.526;2023-06-04T19:53:44;99363.03;;;14.45;35.82
27685;BME280;46113;50.130;8.526;2023-06-04T19:56:36;99358.56;;;14.22;36.20
27685;BME280;46113;50.130;8.526;2023-06-04T19:59:52;99367.91;;;14.01;37.02
27685;BME280;46113;50.130;8.526;2023-06-04T20:07:47;99378.16;;;13.69;37.29
27685;BME280;46113;50.130;8.526;2023-06-04T20:10:41;99371.56;;;13.48;37.80
27685;BME280;46113;50.130;8.526;2023-06-04T20:13:09;99370.34;;;13.39;38.24
27685;BME280;46113;50.130;8.526;2023-06-04T20:18:47;99365.13;;;13.12;37.97
27685;BME280;46113;50.130;8.526;2023-06-04T20:21:43;99371.31;;;12.98;38.98
27685;BME280;46113;50.130;8.526;2023-06-04T20:31:42;99381.50;;;12.64;38.87
27685;BME280;46113;50.130;8.526;2023-06-04T20:35:18;99386.16;;;12.45;39.95
27685;BME280;46113;50.130;8.526;2023-06-04T20:37:47;99398.53;;;12.32;38.79
27685;BME280;46113;50.130;8.526;2023-06-04T20:43:04;99400.59;;;11.83;41.91
27685;BME280;46113;50.130;8.526;2023-06-04T20:46:03;99394.47;;;12.12;41.30
27685;BME280;46113;50.130;8.526;2023-06-04T20:55:18;99399.75;;;11.83;42.40
27685;BME280;46113;50.130;8.526;2023-06-04T20:57:45;99415.91;;;11.78;42.13
27685;BME280;46113;50.130;8.526;2023-06-04T21:00:12;99407.78;;;11.66;42.61
27685;BME280;46113;50.130;8.526;2023-06-04T21:02:39;99413.53;;;11.59;41.99
27685;BME280;46113;50.130;8.526;2023-06-04T21:05:07;99411.47;;;11.64;43.20
27685;BME280;46113;50.130;8.526;2023-06-04T21:07:36;99416.56;;;11.52;42.83
27685;BME280;46113;50.130;8.526;2023-06-04T21:10:03;99415.41;;;11.57;42.32
27685;BME280;46113;50.130;8.526;2023-06-04T21:12:30;99419.22;;;11.06;44.14
27685;BME280;46113;50.130;8.526;2023-06-04T21:14:56;99415.34;;;11.27;43.60
27685;BME280;46113;50.130;8.526;2023-06-04T21:17:23;99424.13;;;11.28;43.08
27685;BME280;46113;50.130;8.526;2023-06-04T21:19:52;99417.75;;;11.16;44.27
27685;BME280;46113;50.130;8.526;2023-06-04T21:22:19;99421.28;;;11.00;43.35
27685;BME280;46113;50.130;8.526;2023-06-04T21:24:46;99418.53;;;11.18;43.01
27685;BME280;46113;50.130;8.526;2023-06-04T21:27:13;99424.44;;;11.07;43.26
27685;BME280;46113;50.130;8.526;2023-06-04T21:29:48;99422.91;;;11.03;43.71
27685;BME280;46113;50.130;8.526;2023-06-04T21:32:15;99421.81;;;10.75;43.71
27685;BME280;46113;50.130;8.526;2023-06-04T21:34:42;99422.78;;;10.88;43.88
27685;BME280;46113;50.130;8.526;2023-06-04T21:37:09;99416.91;;;10.83;44.21
27685;BME280;46113;50.130;8.526;2023-06-04T21:39:36;99420.69;;;10.63;44.79
27685;BME280;46113;50.130;8.526;2023-06-04T21:42:03;99424.81;;;10.69;44.91
27685;BME280;46113;50.130;8.526;2023-06-04T21:44:30;99419.22;;;10.57;44.48
27685;BME280;46113;50.130;8.526;2023-06-04T21:46:57;99425.47;;;10.56;44.88
27685;BME280;46113;50.130;8.526;2023-06-04T21:49:24;99423.31;;;10.47;44.14
27685;BME280;46113;50.130;8.526;2023-06-04T21:51:51;99426.81;;;10.15;44.60
27685;BME280;46113;50.130;8.526;2023-06-04T21:54:18;99422.81;;;10.24;44.81
27685;BME280;46113;50.130;8.526;2023-06-04T21:56:47;99428.69;;;10.29;45.01
27685;BME280;46113;50.130;8.526;2023-06-04T21:59:14;99428.09;;;9.90;46.26
27685;BME280;46113;50.130;8.526;2023-06-04T22:01:41;99426.81;;;9.98;46.67